sensor_id;sensor_type;location;lat;lon;timestamp;P1;durP1;ratioP1;P2;durP2;ratioP2
12625;SDS011;6378;42.684;23.372;2024-02-21T00:01:30;10.43;;;8.03;;
12625;SDS011;6378;42.684;23.372;2024-02-21T00:03:55;10.00;;;8.13;;
12625;SDS011;6378;42.684;23.372;2024-02-21T00:06:21;9.37;;;7.93;;
12625;SDS011;6378;42.684;23.372;2024-02-21T00:08:46;10.00;;;7.30;;
12625;SDS011;6378;42.684;23.372;2024-02-21T00:11:12;9.50;;;7.40;;
12625;SDS011;6378;42.684;23.372;2024-02-21T00:13:37;9.53;;;7.60;;
12625;SDS011;6378;42.684;23.372;2024-02-21T00:16:03;10.50;;;7.77;;
12625;SDS011;6378;42.684;23.372;2024-02-21T00:18:28;9.63;;;7.50;;
12625;SDS011;6378;42.684;23.372;2024-02-21T00:20:54;10.97;;;7.97;;
12625;SDS011;6378;42.684;23.372;2024-02-21T00:23:19;9.20;;;7.63;;
12625;SDS011;6378;42.684;23.372;2024-02-21T00:25:45;9.80;;;7.97;;
12625;SDS011;6378;42.684;23.372;2024-02-21T00:28:10;11.23;;;7.83;;
12625;SDS011;6378;42.684;23.372;2024-02-21T00:30:36;10.03;;;7.53;;
12625;SDS011;6378;42.684;23.372;2024-02-21T00:33:03;10.60;;;7.80;;
12625;SDS011;6378;42.684;23.372;2024-02-21T00:35:29;12.07;;;8.07;;
12625;SDS011;6378;42.684;23.372;2024-02-21T00:37:54;9.67;;;7.57;;
12625;SDS011;6378;42.684;23.372;2024-02-21T00:40:22;9.27;;;6.90;;
12625;SDS011;6378;42.684;23.372;2024-02-21T00:42:48;7.97;;;6.80;;
12625;SDS011;6378;42.684;23.372;2024-02-21T00:45:13;8.40;;;7.37;;
12625;SDS011;6378;42.684;23.372;2024-02-21T00:47:39;9.17;;;7.17;;
12625;SDS011;6378;42.684;23.372;2024-02-21T00:50:05;10.87;;;6.73;;
12625;SDS011;6378;42.684;23.372;2024-02-21T00:52:32;9.03;;;7.07;;
12625;SDS011;6378;42.684;23.372;2024-02-21T00:54:58;9.20;;;7.40;;
12625;SDS011;6378;42.684;23.372;2024-02-21T00:57:24;8.17;;;6.43;;
12625;SDS011;6378;42.684;23.372;2024-02-21T00:59:49;8.50;;;6.50;;
12625;SDS011;6378;42.684;23.372;2024-02-21T01:02:15;7.43;;;6.33;;
12625;SDS011;6378;42.684;23.372;2024-02-21T01:04:40;8.17;;;6.50;;
12625;SDS011;6378;42.684;23.372;2024-02-21T01:07:06;8.50;;;7.10;;
12625;SDS011;6378;42.684;23.372;2024-02-21T01:09:31;7.77;;;6.27;;
12625;SDS011;6378;42.684;23.372;2024-02-21T01:11:57;7.77;;;6.20;;
12625;SDS011;6378;42.684;23.372;2024-02-21T01:14:22;7.80;;;6.27;;
12625;SDS011;6378;42.684;23.372;2024-02-21T01:16:48;7.37;;;5.90;;
12625;SDS011;6378;42.684;23.372;2024-02-21T01:19:13;7.93;;;6.67;;
12625;SDS011;6378;42.684;23.372;2024-02-21T01:21:39;8.40;;;6.47;;
12625;SDS011;6378;42.684;23.372;2024-02-21T01:24:04;7.83;;;6.60;;
12625;SDS011;6378;42.684;23.372;2024-02-21T01:26:30;8.30;;;6.70;;
12625;SDS011;6378;42.684;23.372;2024-02-21T01:28:55;8.43;;;7.10;;
12625;SDS011;6378;42.684;23.372;2024-02-21T01:31:21;8.57;;;6.50;;
12625;SDS011;6378;42.684;23.372;2024-02-21T01:33:46;9.90;;;7.83;;
12625;SDS011;6378;42.684;23.372;2024-02-21T01:36:12;10.90;;;7.47;;
12625;SDS011;6378;42.684;23.372;2024-02-21T01:38:37;9.73;;;7.47;;
12625;SDS011;6378;42.684;23.372;2024-02-21T01:41:03;10.43;;;7.40;;
12625;SDS011;6378;42.684;23.372;2024-02-21T01:43:28;11.47;;;8.27;;
12625;SDS011;6378;42.684;23.372;2024-02-21T01:45:57;12.77;;;8.50;;
12625;SDS011;6378;42.684;23.372;2024-02-21T01:48:23;13.40;;;8.43;;
12625;SDS011;6378;42.684;23.372;2024-02-21T01:50:50;12.73;;;9.10;;
12625;SDS011;6378;42.684;23.372;2024-02-21T01:53:17;12.53;;;9.40;;
12625;SDS011;6378;42.684;23.372;2024-02-21T01:55:46;14.67;;;10.73;;
12625;SDS011;6378;42.684;23.372;2024-02-21T01:58:15;17.67;;;11.10;;
12625;SDS011;6378;42.684;23.372;2024-02-21T02:00:42;14.63;;;10.17;;
12625;SDS011;6378;42.684;23.372;2024-02-21T02:03:12;13.43;;;9.73;;
12625;SDS011;6378;42.684;23.372;2024-02-21T02:05:50;13.13;;;8.97;;
12625;SDS011;6378;42.684;23.372;2024-02-21T02:08:17;10.50;;;8.20;;
12625;SDS011;6378;42.684;23.372;2024-02-21T02:10:44;11.40;;;8.30;;
12625;SDS011;6378;42.684;23.372;2024-02-21T02:13:10;11.13;;;8.53;;
12625;SDS011;6378;42.684;23.372;2024-02-21T02:15:46;10.53;;;8.07;;
12625;SDS011;6378;42.684;23.372;2024-02-21T02:18:13;9.07;;;7.43;;
12625;SDS011;6378;42.684;23.372;2024-02-21T02:20:40;10.77;;;8.60;;
12625;SDS011;6378;42.684;23.372;2024-02-21T02:23:07;10.83;;;7.90;;
12625;SDS011;6378;42.684;23.372;2024-02-21T02:25:35;12.27;;;8.10;;
12625;SDS011;6378;42.684;23.372;2024-02-21T02:28:01;13.07;;;9.43;;
12625;SDS011;6378;42.684;23.372;2024-02-21T02:30:28;14.03;;;9.87;;
12625;SDS011;6378;42.684;23.372;2024-02-21T02:32:54;12.27;;;9.47;;
12625;SDS011;6378;42.684;23.372;2024-02-21T02:35:20;13.77;;;10.03;;
12625;SDS011;6378;42.684;23.372;2024-02-21T02:37:49;12.97;;;9.93;;
12625;SDS011;6378;42.684;23.372;2024-02-21T02:40:15;15.20;;;9.97;;
12625;SDS011;6378;42.684;23.372;2024-02-21T02:42:41;13.17;;;9.93;;
12625;SDS011;6378;42.684;23.372;2024-02-21T02:45:06;14.83;;;10.73;;
12625;SDS011;6378;42.684;23.372;2024-02-21T02:47:32;14.03;;;10.60;;
12625;SDS011;6378;42.684;23.372;2024-02-21T02:49:59;15.70;;;10.70;;
12625;SDS011;6378;42.684;23.372;2024-02-21T02:52:25;12.67;;;10.30;;
12625;SDS011;6378;42.684;23.372;2024-02-21T02:54:51;16.10;;;10.53;;
12625;SDS011;6378;42.684;23.372;2024-02-21T02:57:18;15.43;;;11.27;;
12625;SDS011;6378;42.684;23.372;2024-02-21T02:59:50;14.50;;;11.30;;
12625;SDS011;6378;42.684;23.372;2024-02-21T03:02:16;13.50;;;10.33;;
12625;SDS011;6378;42.684;23.372;2024-02-21T03:04:42;14.50;;;10.30;;
12625;SDS011;6378;42.684;23.372;2024-02-21T03:07:08;14.87;;;10.73;;
12625;SDS011;6378;42.684;23.372;2024-02-21T03:09:33;15.53;;;11.47;;
12625;SDS011;6378;42.684;23.372;2024-02-21T03:11:59;16.50;;;11.50;;
12625;SDS011;6378;42.684;23.372;2024-02-21T03:14:30;15.13;;;11.07;;
12625;SDS011;6378;42.684;23.372;2024-02-21T03:16:56;16.53;;;11.73;;
12625;SDS011;6378;42.684;23.372;2024-02-21T03:19:23;15.30;;;11.33;;
12625;SDS011;6378;42.684;23.372;2024-02-21T03:21:48;16.17;;;10.73;;
12625;SDS011;6378;42.684;23.372;2024-02-21T03:24:18;17.43;;;11.70;;
12625;SDS011;6378;42.684;23.372;2024-02-21T03:26:44;19.07;;;12.83;;
12625;SDS011;6378;42.684;23.372;2024-02-21T03:29:11;18.00;;;12.47;;
12625;SDS011;6378;42.684;23.372;2024-02-21T03:31:37;17.30;;;11.70;;
12625;SDS011;6378;42.684;23.372;2024-02-21T03:34:02;18.53;;;13.00;;
12625;SDS011;6378;42.684;23.372;2024-02-21T03:36:28;18.27;;;12.87;;
12625;SDS011;6378;42.684;23.372;2024-02-21T03:38:54;20.00;;;13.87;;
12625;SDS011;6378;42.684;23.372;2024-02-21T03:41:20;17.70;;;13.33;;
12625;SDS011;6378;42.684;23.372;2024-02-21T03:43:46;17.53;;;12.37;;
12625;SDS011;6378;42.684;23.372;2024-02-21T03:46:11;16.20;;;12.07;;
12625;SDS011;6378;42.684;23.372;2024-02-21T03:48:37;16.80;;;12.47;;
12625;SDS011;6378;42.684;23.372;2024-02-21T03:51:02;18.00;;;12.73;;
12625;SDS011;6378;42.684;23.372;2024-02-21T03:53:28;18.10;;;13.37;;
12625;SDS011;6378;42.684;23.372;2024-02-21T03:55:53;20.03;;;13.60;;
12625;SDS011;6378;42.684;23.372;2024-02-21T03:58:19;19.77;;;13.80;;
12625;SDS011;6378;42.684;23.372;2024-02-21T04:00:45;18.97;;;13.47;;
12625;SDS011;6378;42.684;23.372;2024-02-21T04:03:11;16.37;;;13.13;;
12625;SDS011;6378;42.684;23.372;2024-02-21T04:05:36;19.00;;;13.80;;
12625;SDS011;6378;42.684;23.372;2024-02-21T04:08:05;19.10;;;13.73;;
12625;SDS011;6378;42.684;23.372;2024-02-21T04:10:31;19.90;;;13.47;;
12625;SDS011;6378;42.684;23.372;2024-02-21T04:12:57;19.73;;;13.90;;
12625;SDS011;6378;42.684;23.372;2024-02-21T04:15:22;20.23;;;13.90;;
12625;SDS011;6378;42.684;23.372;2024-02-21T04:17:48;18.40;;;13.60;;
12625;SDS011;6378;42.684;23.372;2024-02-21T04:20:14;19.40;;;14.47;;
12625;SDS011;6378;42.684;23.372;2024-02-21T04:22:42;20.00;;;14.30;;
12625;SDS011;6378;42.684;23.372;2024-02-21T04:25:09;18.87;;;13.27;;
12625;SDS011;6378;42.684;23.372;2024-02-21T04:27:36;19.50;;;13.93;;
12625;SDS011;6378;42.684;23.372;2024-02-21T04:30:04;19.23;;;13.00;;
12625;SDS011;6378;42.684;23.372;2024-02-21T04:32:31;17.63;;;12.77;;
12625;SDS011;6378;42.684;23.372;2024-02-21T04:34:57;20.37;;;13.13;;
12625;SDS011;6378;42.684;23.372;2024-02-21T04:37:23;20.77;;;14.03;;
12625;SDS011;6378;42.684;23.372;2024-02-21T04:39:49;18.93;;;12.80;;
12625;SDS011;6378;42.684;23.372;2024-02-21T04:42:15;19.47;;;13.50;;
12625;SDS011;6378;42.684;23.372;2024-02-21T04:44:40;20.47;;;14.30;;
12625;SDS011;6378;42.684;23.372;2024-02-21T04:47:06;21.10;;;14.63;;
12625;SDS011;6378;42.684;23.372;2024-02-21T04:49:32;20.40;;;14.40;;
12625;SDS011;6378;42.684;23.372;2024-02-21T04:51:58;20.33;;;13.97;;
12625;SDS011;6378;42.684;23.372;2024-02-21T04:54:23;20.60;;;14.60;;
12625;SDS011;6378;42.684;23.372;2024-02-21T04:56:49;21.27;;;14.40;;
12625;SDS011;6378;42.684;23.372;2024-02-21T04:59:15;21.00;;;14.10;;
12625;SDS011;6378;42.684;23.372;2024-02-21T05:01:41;19.87;;;13.90;;
12625;SDS011;6378;42.684;23.372;2024-02-21T05:04:06;20.60;;;14.70;;
12625;SDS011;6378;42.684;23.372;2024-02-21T05:06:32;21.07;;;13.73;;
12625;SDS011;6378;42.684;23.372;2024-02-21T05:09:03;19.50;;;13.30;;
12625;SDS011;6378;42.684;23.372;2024-02-21T05:11:29;21.53;;;14.17;;
12625;SDS011;6378;42.684;23.372;2024-02-21T05:13:55;22.97;;;14.90;;
12625;SDS011;6378;42.684;23.372;2024-02-21T05:16:21;23.20;;;15.57;;
12625;SDS011;6378;42.684;23.372;2024-02-21T05:18:46;23.00;;;15.80;;
12625;SDS011;6378;42.684;23.372;2024-02-21T05:21:11;19.67;;;13.83;;
12625;SDS011;6378;42.684;23.372;2024-02-21T05:23:38;22.57;;;15.70;;
12625;SDS011;6378;42.684;23.372;2024-02-21T05:26:04;21.67;;;15.23;;
12625;SDS011;6378;42.684;23.372;2024-02-21T05:28:30;20.73;;;15.57;;
12625;SDS011;6378;42.684;23.372;2024-02-21T05:30:56;22.97;;;15.87;;
12625;SDS011;6378;42.684;23.372;2024-02-21T05:33:22;22.40;;;15.80;;
12625;SDS011;6378;42.684;23.372;2024-02-21T05:35:47;22.43;;;14.97;;
12625;SDS011;6378;42.684;23.372;2024-02-21T05:38:13;22.67;;;16.07;;
12625;SDS011;6378;42.684;23.372;2024-02-21T05:40:39;21.10;;;16.17;;
12625;SDS011;6378;42.684;23.372;2024-02-21T05:43:06;20.97;;;15.27;;
12625;SDS011;6378;42.684;23.372;2024-02-21T05:45:32;23.93;;;16.27;;
12625;SDS011;6378;42.684;23.372;2024-02-21T05:47:58;21.77;;;15.47;;
12625;SDS011;6378;42.684;23.372;2024-02-21T05:50:23;20.20;;;15.20;;
12625;SDS011;6378;42.684;23.372;2024-02-21T05:52:52;21.93;;;15.77;;
12625;SDS011;6378;42.684;23.372;2024-02-21T05:55:23;22.70;;;15.80;;
12625;SDS011;6378;42.684;23.372;2024-02-21T05:57:48;22.93;;;16.80;;
12625;SDS011;6378;42.684;23.372;2024-02-21T06:00:14;25.83;;;16.77;;
12625;SDS011;6378;42.684;23.372;2024-02-21T06:02:40;23.43;;;16.57;;
12625;SDS011;6378;42.684;23.372;2024-02-21T06:05:06;25.63;;;17.87;;
12625;SDS011;6378;42.684;23.372;2024-02-21T06:07:34;22.83;;;16.93;;
12625;SDS011;6378;42.684;23.372;2024-02-21T06:10:01;21.90;;;16.20;;
12625;SDS011;6378;42.684;23.372;2024-02-21T06:12:27;25.23;;;17.97;;
12625;SDS011;6378;42.684;23.372;2024-02-21T06:14:52;21.43;;;15.90;;
12625;SDS011;6378;42.684;23.372;2024-02-21T06:17:18;24.47;;;16.90;;
12625;SDS011;6378;42.684;23.372;2024-02-21T06:19:43;23.67;;;15.70;;
12625;SDS011;6378;42.684;23.372;2024-02-21T06:22:10;23.30;;;16.30;;
12625;SDS011;6378;42.684;23.372;2024-02-21T06:24:36;28.83;;;17.30;;
12625;SDS011;6378;42.684;23.372;2024-02-21T06:27:03;25.00;;;17.60;;
12625;SDS011;6378;42.684;23.372;2024-02-21T06:29:29;27.33;;;18.00;;
12625;SDS011;6378;42.684;23.372;2024-02-21T06:31:54;26.43;;;18.77;;
12625;SDS011;6378;42.684;23.372;2024-02-21T06:34:20;24.40;;;16.47;;
12625;SDS011;6378;42.684;23.372;2024-02-21T06:36:45;24.10;;;17.47;;
12625;SDS011;6378;42.684;23.372;2024-02-21T06:39:11;25.93;;;18.07;;
12625;SDS011;6378;42.684;23.372;2024-02-21T06:41:37;25.43;;;16.33;;
12625;SDS011;6378;42.684;23.372;2024-02-21T06:44:02;27.77;;;19.03;;
12625;SDS011;6378;42.684;23.372;2024-02-21T06:46:29;34.93;;;24.20;;
12625;SDS011;6378;42.684;23.372;2024-02-21T06:48:55;26.67;;;18.17;;
12625;SDS011;6378;42.684;23.372;2024-02-21T06:51:23;29.53;;;18.93;;
12625;SDS011;6378;42.684;23.372;2024-02-21T06:53:50;24.57;;;17.67;;
12625;SDS011;6378;42.684;23.372;2024-02-21T06:56:15;30.60;;;19.77;;
12625;SDS011;6378;42.684;23.372;2024-02-21T06:58:41;30.60;;;19.80;;
12625;SDS011;6378;42.684;23.372;2024-02-21T07:01:06;27.20;;;18.60;;
12625;SDS011;6378;42.684;23.372;2024-02-21T07:03:32;27.27;;;18.33;;
12625;SDS011;6378;42.684;23.372;2024-02-21T07:05:58;25.20;;;18.93;;
12625;SDS011;6378;42.684;23.372;2024-02-21T07:08:23;27.10;;;18.77;;
12625;SDS011;6378;42.684;23.372;2024-02-21T07:10:49;28.50;;;18.63;;
12625;SDS011;6378;42.684;23.372;2024-02-21T07:13:14;27.17;;;18.37;;
12625;SDS011;6378;42.684;23.372;2024-02-21T07:15:41;27.73;;;17.93;;
12625;SDS011;6378;42.684;23.372;2024-02-21T07:18:06;23.93;;;16.93;;
12625;SDS011;6378;42.684;23.372;2024-02-21T07:20:32;26.40;;;18.23;;
12625;SDS011;6378;42.684;23.372;2024-02-21T07:23:06;26.77;;;18.63;;
12625;SDS011;6378;42.684;23.372;2024-02-21T07:25:32;25.73;;;18.27;;
12625;SDS011;6378;42.684;23.372;2024-02-21T07:27:57;25.47;;;18.47;;
12625;SDS011;6378;42.684;23.372;2024-02-21T07:30:23;28.77;;;18.97;;
12625;SDS011;6378;42.684;23.372;2024-02-21T07:32:49;30.30;;;19.10;;
12625;SDS011;6378;42.684;23.372;2024-02-21T07:35:15;29.37;;;18.90;;
12625;SDS011;6378;42.684;23.372;2024-02-21T07:37:41;26.00;;;17.63;;
12625;SDS011;6378;42.684;23.372;2024-02-21T07:40:09;27.27;;;18.43;;
12625;SDS011;6378;42.684;23.372;2024-02-21T07:42:38;32.60;;;20.33;;
12625;SDS011;6378;42.684;23.372;2024-02-21T07:45:03;27.03;;;18.70;;
12625;SDS011;6378;42.684;23.372;2024-02-21T07:47:29;28.60;;;17.43;;
12625;SDS011;6378;42.684;23.372;2024-02-21T07:49:55;30.67;;;18.40;;
12625;SDS011;6378;42.684;23.372;2024-02-21T07:52:20;31.20;;;18.83;;
12625;SDS011;6378;42.684;23.372;2024-02-21T07:54:45;28.40;;;18.27;;
12625;SDS011;6378;42.684;23.372;2024-02-21T07:57:11;46.60;;;27.80;;
12625;SDS011;6378;42.684;23.372;2024-02-21T07:59:36;28.13;;;18.67;;
12625;SDS011;6378;42.684;23.372;2024-02-21T08:02:02;23.63;;;15.43;;
12625;SDS011;6378;42.684;23.372;2024-02-21T08:04:31;20.90;;;15.03;;
12625;SDS011;6378;42.684;23.372;2024-02-21T08:06:57;25.83;;;16.43;;
12625;SDS011;6378;42.684;23.372;2024-02-21T08:09:26;22.30;;;15.47;;
12625;SDS011;6378;42.684;23.372;2024-02-21T08:11:52;24.33;;;16.87;;
12625;SDS011;6378;42.684;23.372;2024-02-21T08:14:19;23.10;;;15.47;;
12625;SDS011;6378;42.684;23.372;2024-02-21T08:16:44;21.27;;;15.13;;
12625;SDS011;6378;42.684;23.372;2024-02-21T08:19:10;24.63;;;16.63;;
12625;SDS011;6378;42.684;23.372;2024-02-21T08:21:36;27.27;;;18.27;;
12625;SDS011;6378;42.684;23.372;2024-02-21T08:24:01;22.53;;;16.60;;
12625;SDS011;6378;42.684;23.372;2024-02-21T08:26:27;25.83;;;15.90;;
12625;SDS011;6378;42.684;23.372;2024-02-21T08:28:55;21.30;;;16.20;;
12625;SDS011;6378;42.684;23.372;2024-02-21T08:31:23;22.57;;;15.43;;
12625;SDS011;6378;42.684;23.372;2024-02-21T08:33:53;22.67;;;16.03;;
12625;SDS011;6378;42.684;23.372;2024-02-21T08:36:19;22.27;;;14.83;;
12625;SDS011;6378;42.684;23.372;2024-02-21T08:38:45;20.90;;;15.27;;
12625;SDS011;6378;42.684;23.372;2024-02-21T08:41:11;23.07;;;16.07;;
12625;SDS011;6378;42.684;23.372;2024-02-21T08:43:37;20.97;;;15.00;;
12625;SDS011;6378;42.684;23.372;2024-02-21T08:46:03;22.70;;;15.47;;
12625;SDS011;6378;42.684;23.372;2024-02-21T08:48:30;18.73;;;14.97;;
12625;SDS011;6378;42.684;23.372;2024-02-21T08:50:55;22.13;;;15.43;;
12625;SDS011;6378;42.684;23.372;2024-02-21T08:53:21;26.60;;;15.77;;
12625;SDS011;6378;42.684;23.372;2024-02-21T08:55:46;23.50;;;15.70;;
12625;SDS011;6378;42.684;23.372;2024-02-21T08:58:12;22.67;;;14.73;;
12625;SDS011;6378;42.684;23.372;2024-02-21T09:00:39;17.87;;;14.50;;
12625;SDS011;6378;42.684;23.372;2024-02-21T09:03:04;18.10;;;14.05;;
12625;SDS011;6378;42.684;23.372;2024-02-21T09:05:30;18.93;;;14.17;;
12625;SDS011;6378;42.684;23.372;2024-02-21T09:07:55;18.33;;;13.45;;
12625;SDS011;6378;42.684;23.372;2024-02-21T09:10:21;18.10;;;13.23;;
12625;SDS011;6378;42.684;23.372;2024-02-21T09:12:46;18.43;;;14.20;;
12625;SDS011;6378;42.684;23.372;2024-02-21T09:15:12;21.87;;;13.70;;
12625;SDS011;6378;42.684;23.372;2024-02-21T09:17:38;20.73;;;14.60;;
12625;SDS011;6378;42.684;23.372;2024-02-21T09:20:04;19.67;;;14.97;;
12625;SDS011;6378;42.684;23.372;2024-02-21T09:22:31;21.10;;;14.37;;
12625;SDS011;6378;42.684;23.372;2024-02-21T09:24:59;18.57;;;14.77;;
12625;SDS011;6378;42.684;23.372;2024-02-21T09:27:25;20.50;;;14.77;;
12625;SDS011;6378;42.684;23.372;2024-02-21T09:29:51;20.20;;;15.30;;
12625;SDS011;6378;42.684;23.372;2024-02-21T09:32:18;17.03;;;14.20;;
12625;SDS011;6378;42.684;23.372;2024-02-21T09:34:44;18.87;;;13.67;;
12625;SDS011;6378;42.684;23.372;2024-02-21T09:37:10;19.60;;;16.38;;
12625;SDS011;6378;42.684;23.372;2024-02-21T09:39:35;19.43;;;14.87;;
12625;SDS011;6378;42.684;23.372;2024-02-21T09:42:05;19.20;;;14.70;;
12625;SDS011;6378;42.684;23.372;2024-02-21T09:44:37;18.83;;;13.77;;
12625;SDS011;6378;42.684;23.372;2024-02-21T09:47:04;19.77;;;14.88;;
12625;SDS011;6378;42.684;23.372;2024-02-21T09:49:35;18.77;;;14.53;;
12625;SDS011;6378;42.684;23.372;2024-02-21T09:52:04;18.87;;;14.33;;
12625;SDS011;6378;42.684;23.372;2024-02-21T09:54:32;17.03;;;13.53;;
12625;SDS011;6378;42.684;23.372;2024-02-21T09:57:02;20.70;;;13.80;;
12625;SDS011;6378;42.684;23.372;2024-02-21T09:59:28;16.37;;;13.20;;
12625;SDS011;6378;42.684;23.372;2024-02-21T10:01:56;21.60;;;14.73;;
12625;SDS011;6378;42.684;23.372;2024-02-21T10:04:23;17.77;;;14.00;;
12625;SDS011;6378;42.684;23.372;2024-02-21T10:06:48;18.07;;;14.13;;
12625;SDS011;6378;42.684;23.372;2024-02-21T10:09:24;24.00;;;15.33;;
12625;SDS011;6378;42.684;23.372;2024-02-21T10:11:52;19.43;;;13.97;;
12625;SDS011;6378;42.684;23.372;2024-02-21T10:14:19;18.63;;;12.77;;
12625;SDS011;6378;42.684;23.372;2024-02-21T10:17:03;15.60;;;11.60;;
12625;SDS011;6378;42.684;23.372;2024-02-21T10:19:34;14.03;;;10.87;;
12625;SDS011;6378;42.684;23.372;2024-02-21T10:22:07;15.50;;;12.70;;
12625;SDS011;6378;42.684;23.372;2024-02-21T10:24:33;17.75;;;12.95;;
12625;SDS011;6378;42.684;23.372;2024-02-21T10:27:04;14.77;;;11.43;;
12625;SDS011;6378;42.684;23.372;2024-02-21T10:29:33;15.63;;;11.67;;
12625;SDS011;6378;42.684;23.372;2024-02-21T10:32:09;15.77;;;12.57;;
12625;SDS011;6378;42.684;23.372;2024-02-21T10:34:36;13.57;;;10.43;;
12625;SDS011;6378;42.684;23.372;2024-02-21T10:37:06;11.33;;;9.73;;
12625;SDS011;6378;42.684;23.372;2024-02-21T10:39:34;15.57;;;10.53;;
12625;SDS011;6378;42.684;23.372;2024-02-21T10:42:02;14.13;;;11.30;;
12625;SDS011;6378;42.684;23.372;2024-02-21T10:44:29;15.55;;;11.15;;
12625;SDS011;6378;42.684;23.372;2024-02-21T10:46:56;13.00;;;11.13;;
12625;SDS011;6378;42.684;23.372;2024-02-21T10:49:23;13.23;;;11.20;;
12625;SDS011;6378;42.684;23.372;2024-02-21T10:52:03;12.33;;;9.97;;
12625;SDS011;6378;42.684;23.372;2024-02-21T10:54:45;11.73;;;10.07;;
12625;SDS011;6378;42.684;23.372;2024-02-21T10:57:18;11.40;;;9.57;;
12625;SDS011;6378;42.684;23.372;2024-02-21T10:59:46;10.68;;;9.50;;
12625;SDS011;6378;42.684;23.372;2024-02-21T11:02:13;13.20;;;10.85;;
12625;SDS011;6378;42.684;23.372;2024-02-21T11:04:40;12.02;;;10.50;;
12625;SDS011;6378;42.684;23.372;2024-02-21T11:07:07;12.63;;;10.15;;
12625;SDS011;6378;42.684;23.372;2024-02-21T11:09:33;13.13;;;9.98;;
12625;SDS011;6378;42.684;23.372;2024-02-21T11:12:03;12.48;;;9.00;;
12625;SDS011;6378;42.684;23.372;2024-02-21T11:14:30;11.10;;;8.65;;
12625;SDS011;6378;42.684;23.372;2024-02-21T11:17:14;11.30;;;8.57;;
12625;SDS011;6378;42.684;23.372;2024-02-21T11:19:41;10.93;;;8.15;;
12625;SDS011;6378;42.684;23.372;2024-02-21T11:22:13;9.47;;;7.30;;
12625;SDS011;6378;42.684;23.372;2024-02-21T11:24:41;8.00;;;7.13;;
12625;SDS011;6378;42.684;23.372;2024-02-21T11:27:20;7.67;;;6.87;;
12625;SDS011;6378;42.684;23.372;2024-02-21T11:29:53;6.60;;;5.70;;
12625;SDS011;6378;42.684;23.372;2024-02-21T11:32:21;6.90;;;6.20;;
12625;SDS011;6378;42.684;23.372;2024-02-21T11:35:00;8.40;;;6.53;;
12625;SDS011;6378;42.684;23.372;2024-02-21T11:37:30;8.07;;;6.70;;
12625;SDS011;6378;42.684;23.372;2024-02-21T11:40:02;7.65;;;5.80;;
12625;SDS011;6378;42.684;23.372;2024-02-21T11:42:29;7.78;;;6.72;;
12625;SDS011;6378;42.684;23.372;2024-02-21T11:44:59;6.18;;;5.53;;
12625;SDS011;6378;42.684;23.372;2024-02-21T11:47:25;7.18;;;6.18;;
12625;SDS011;6378;42.684;23.372;2024-02-21T11:49:51;6.85;;;5.75;;
12625;SDS011;6378;42.684;23.372;2024-02-21T11:52:23;6.32;;;5.50;;
12625;SDS011;6378;42.684;23.372;2024-02-21T11:54:50;8.15;;;6.25;;
12625;SDS011;6378;42.684;23.372;2024-02-21T11:57:17;6.97;;;5.72;;
12625;SDS011;6378;42.684;23.372;2024-02-21T11:59:46;6.95;;;6.20;;
12625;SDS011;6378;42.684;23.372;2024-02-21T12:02:14;7.88;;;6.32;;
12625;SDS011;6378;42.684;23.372;2024-02-21T12:04:40;10.20;;;8.30;;
12625;SDS011;6378;42.684;23.372;2024-02-21T12:07:07;11.57;;;9.35;;
12625;SDS011;6378;42.684;23.372;2024-02-21T12:09:33;8.82;;;7.88;;
12625;SDS011;6378;42.684;23.372;2024-02-21T12:12:00;7.90;;;6.82;;
12625;SDS011;6378;42.684;23.372;2024-02-21T12:14:28;6.72;;;6.05;;
12625;SDS011;6378;42.684;23.372;2024-02-21T12:16:58;8.93;;;6.60;;
12625;SDS011;6378;42.684;23.372;2024-02-21T12:19:24;12.23;;;8.33;;
12625;SDS011;6378;42.684;23.372;2024-02-21T12:21:49;8.40;;;7.60;;
12625;SDS011;6378;42.684;23.372;2024-02-21T12:26:51;10.33;;;7.00;;
12625;SDS011;6378;42.684;23.372;2024-02-21T12:29:18;12.17;;;8.07;;
12625;SDS011;6378;42.684;23.372;2024-02-21T12:31:44;15.50;;;11.50;;
12625;SDS011;6378;42.684;23.372;2024-02-21T12:34:10;7.90;;;6.57;;
12625;SDS011;6378;42.684;23.372;2024-02-21T12:36:36;7.67;;;6.77;;
12625;SDS011;6378;42.684;23.372;2024-02-21T12:39:07;9.13;;;7.50;;
12625;SDS011;6378;42.684;23.372;2024-02-21T12:41:33;7.83;;;6.63;;
12625;SDS011;6378;42.684;23.372;2024-02-21T12:44:00;7.87;;;6.90;;
12625;SDS011;6378;42.684;23.372;2024-02-21T12:46:26;10.97;;;7.90;;
12625;SDS011;6378;42.684;23.372;2024-02-21T12:48:51;11.57;;;7.77;;
12625;SDS011;6378;42.684;23.372;2024-02-21T12:51:17;9.93;;;7.37;;
12625;SDS011;6378;42.684;23.372;2024-02-21T12:53:46;10.83;;;7.80;;
12625;SDS011;6378;42.684;23.372;2024-02-21T12:56:14;11.63;;;8.40;;
12625;SDS011;6378;42.684;23.372;2024-02-21T12:58:40;11.33;;;7.83;;
12625;SDS011;6378;42.684;23.372;2024-02-21T13:03:51;11.60;;;9.37;;
12625;SDS011;6378;42.684;23.372;2024-02-21T13:06:17;13.87;;;10.47;;
12625;SDS011;6378;42.684;23.372;2024-02-21T13:08:44;14.03;;;9.50;;
12625;SDS011;6378;42.684;23.372;2024-02-21T13:11:09;13.57;;;10.30;;
12625;SDS011;6378;42.684;23.372;2024-02-21T13:13:36;10.87;;;9.20;;
12625;SDS011;6378;42.684;23.372;2024-02-21T13:16:01;11.77;;;9.43;;
12625;SDS011;6378;42.684;23.372;2024-02-21T13:18:27;11.37;;;9.13;;
12625;SDS011;6378;42.684;23.372;2024-02-21T13:20:52;12.87;;;9.13;;
12625;SDS011;6378;42.684;23.372;2024-02-21T13:23:18;13.03;;;9.60;;
12625;SDS011;6378;42.684;23.372;2024-02-21T13:25:46;12.43;;;10.00;;
12625;SDS011;6378;42.684;23.372;2024-02-21T13:28:12;15.53;;;11.23;;
12625;SDS011;6378;42.684;23.372;2024-02-21T13:30:38;12.80;;;10.27;;
12625;SDS011;6378;42.684;23.372;2024-02-21T13:33:05;11.37;;;9.80;;
12625;SDS011;6378;42.684;23.372;2024-02-21T13:35:31;10.03;;;8.93;;
12625;SDS011;6378;42.684;23.372;2024-02-21T13:37:57;10.80;;;9.10;;
12625;SDS011;6378;42.684;23.372;2024-02-21T13:40:22;10.80;;;7.97;;
12625;SDS011;6378;42.684;23.372;2024-02-21T13:42:48;12.00;;;8.80;;
12625;SDS011;6378;42.684;23.372;2024-02-21T13:45:16;9.83;;;7.80;;
12625;SDS011;6378;42.684;23.372;2024-02-21T13:47:41;9.53;;;7.93;;
12625;SDS011;6378;42.684;23.372;2024-02-21T13:50:07;9.37;;;7.90;;
12625;SDS011;6378;42.684;23.372;2024-02-21T13:52:39;10.07;;;7.30;;
12625;SDS011;6378;42.684;23.372;2024-02-21T13:55:05;9.93;;;7.93;;
12625;SDS011;6378;42.684;23.372;2024-02-21T13:57:34;10.30;;;8.00;;
12625;SDS011;6378;42.684;23.372;2024-02-21T14:00:03;10.40;;;8.50;;
12625;SDS011;6378;42.684;23.372;2024-02-21T14:02:30;11.33;;;9.13;;
12625;SDS011;6378;42.684;23.372;2024-02-21T14:04:55;10.63;;;8.13;;
12625;SDS011;6378;42.684;23.372;2024-02-21T14:07:21;11.10;;;8.67;;
12625;SDS011;6378;42.684;23.372;2024-02-21T14:09:46;11.27;;;8.90;;
12625;SDS011;6378;42.684;23.372;2024-02-21T14:12:12;13.80;;;8.60;;
12625;SDS011;6378;42.684;23.372;2024-02-21T14:14:37;12.40;;;9.50;;
12625;SDS011;6378;42.684;23.372;2024-02-21T14:17:03;12.23;;;8.60;;
12625;SDS011;6378;42.684;23.372;2024-02-21T14:19:29;9.83;;;8.40;;
12625;SDS011;6378;42.684;23.372;2024-02-21T14:21:55;12.13;;;8.90;;
12625;SDS011;6378;42.684;23.372;2024-02-21T14:24:21;10.53;;;7.70;;
12625;SDS011;6378;42.684;23.372;2024-02-21T14:26:47;10.93;;;8.20;;
12625;SDS011;6378;42.684;23.372;2024-02-21T14:29:14;10.70;;;7.93;;
12625;SDS011;6378;42.684;23.372;2024-02-21T14:31:39;9.27;;;7.80;;